createdAt,value
2022-08-11T00:01:36.696Z,99326.50
2022-08-11T00:04:40.248Z,99328.50
2022-08-11T00:07:45.349Z,99321.81
2022-08-11T00:10:52.674Z,99343.91
2022-08-11T00:13:55.708Z,99346.03
2022-08-11T00:16:59.753Z,99337.53
2022-08-11T00:20:13.866Z,99342.25
2022-08-11T00:23:20.442Z,99341.88
2022-08-11T00:26:23.803Z,99326.19
2022-08-11T00:29:26.661Z,99331.88
2022-08-11T00:32:30.033Z,99335.53
2022-08-11T00:35:54.344Z,99338.97
2022-08-11T00:39:03.958Z,99338.13
2022-08-11T00:42:12.097Z,99327.66
2022-08-11T00:45:22.732Z,99330.22
2022-08-11T00:48:29.777Z,99326.31
2022-08-11T00:52:05.136Z,99326.09
2022-08-11T00:55:23.975Z,99318.28
2022-08-11T00:58:50.948Z,99323.41
2022-08-11T01:02:00.280Z,99313.84
2022-08-11T01:05:27.254Z,99302.31
2022-08-11T01:08:44.943Z,99301.84
2022-08-11T01:11:56.503Z,99301.94
2022-08-11T01:15:17.696Z,99302.84
2022-08-11T01:18:47.579Z,99310.34
2022-08-11T01:22:14.163Z,99310.41
2022-08-11T01:25:56.754Z,99311.53
2022-08-11T01:29:16.894Z,99326.91
2022-08-11T01:32:50.092Z,99328.91
2022-08-11T01:36:10.370Z,99326.53
2022-08-11T01:39:32.600Z,99313.34
2022-08-11T01:43:16.022Z,99321.31
2022-08-11T01:46:22.664Z,99318.66
2022-08-11T01:50:06.781Z,99322.56
2022-08-11T01:53:02.836Z,99316.66
2022-08-11T01:56:14.320Z,99319.00
2022-08-11T01:59:19.531Z,99312.16
2022-08-11T02:02:43.581Z,99308.13
2022-08-11T02:05:56.319Z,99299.81
2022-08-11T02:09:05.491Z,99296.66
2022-08-11T02:12:18.969Z,99292.94
2022-08-11T02:15:26.394Z,99293.81
2022-08-11T02:18:54.037Z,99301.00
2022-08-11T02:22:18.696Z,99287.81
2022-08-11T02:25:25.307Z,99284.94
2022-08-11T02:28:35.814Z,99290.66
2022-08-11T02:32:15.632Z,99292.03
2022-08-11T02:35:29.121Z,99292.16
2022-08-11T02:38:35.726Z,99300.69
2022-08-11T02:42:03.285Z,99290.19
2022-08-11T02:45:29.909Z,99302.19
2022-08-11T02:49:00.988Z,99291.16
2022-08-11T02:52:06.804Z,99276.28
2022-08-11T02:55:56.614Z,99282.06
2022-08-11T02:59:11.949Z,99268.88
2022-08-11T03:02:19.997Z,99273.84
2022-08-11T03:05:27.417Z,99288.97
2022-08-11T03:08:46.028Z,99290.78
2022-08-11T03:12:18.754Z,99293.09
2022-08-11T03:15:41.770Z,99301.03
2022-08-11T03:18:57.376Z,99314.66
2022-08-11T03:22:06.415Z,99320.13
2022-08-11T03:25:13.392Z,99314.81
2022-08-11T03:28:24.621Z,99315.09
2022-08-11T03:31:29.468Z,99312.69
2022-08-11T03:34:37.980Z,99316.88
2022-08-11T03:37:52.081Z,99312.81
2022-08-11T03:41:57.665Z,99312.28
2022-08-11T03:44:56.976Z,99314.97
2022-08-11T03:48:09.044Z,99319.50
2022-08-11T03:51:19.754Z,99321.28
2022-08-11T03:54:30.230Z,99313.69
2022-08-11T03:57:51.521Z,99336.91
2022-08-11T04:01:12.251Z,99322.47
2022-08-11T04:04:24.256Z,99311.13
2022-08-11T04:07:51.918Z,99316.81
2022-08-11T04:11:11.650Z,99324.50
2022-08-11T04:14:52.924Z,99314.28
2022-08-11T04:18:22.646Z,99306.59
2022-08-11T04:21:42.799Z,99305.06
2022-08-11T04:25:04.250Z,99312.53
2022-08-11T04:28:29.132Z,99307.06
2022-08-11T04:31:50.914Z,99305.59
2022-08-11T04:35:10.600Z,99308.13
2022-08-11T04:38:32.582Z,99309.84
2022-08-11T04:42:13.619Z,99314.88
2022-08-11T04:45:35.161Z,99319.53
2022-08-11T04:49:10.822Z,99309.78
2022-08-11T04:52:47.468Z,99315.81
2022-08-11T04:56:20.552Z,99316.66
2022-08-11T05:00:01.390Z,99310.72
2022-08-11T05:03:23.311Z,99314.59
2022-08-11T05:06:35.306Z,99327.41
2022-08-11T05:09:55.683Z,99329.38
2022-08-11T05:13:22.226Z,99335.16
2022-08-11T05:16:46.068Z,99334.09
2022-08-11T05:20:06.260Z,99352.72
2022-08-11T05:23:28.985Z,99344.19
2022-08-11T05:26:57.115Z,99347.28
2022-08-11T05:30:21.278Z,99337.53
2022-08-11T05:33:49.745Z,99346.97
2022-08-11T05:36:59.188Z,99343.47
2022-08-11T05:40:30.069Z,99350.22
2022-08-11T05:44:21.755Z,99344.41
2022-08-11T05:47:44.173Z,99349.75
2022-08-11T05:51:10.468Z,99360.06
2022-08-11T05:54:34.940Z,99358.53
2022-08-11T05:57:51.156Z,99362.91
2022-08-11T06:00:54.962Z,99372.88
2022-08-11T06:04:16.915Z,99372.97
2022-08-11T06:07:19.958Z,99375.31
2022-08-11T06:10:27.844Z,99379.53
2022-08-11T06:13:32.756Z,99378.97
2022-08-11T06:16:35.700Z,99386.66
2022-08-11T06:19:40.473Z,99390.66
2022-08-11T06:22:47.570Z,99389.72
2022-08-11T06:25:56.515Z,99398.16
2022-08-11T06:29:03.437Z,99392.84
2022-08-11T06:32:06.992Z,99403.50
2022-08-11T06:35:13.801Z,99405.63
2022-08-11T06:38:21.814Z,99400.78
2022-08-11T06:41:34.437Z,99411.53
2022-08-11T06:44:43.722Z,99421.31
2022-08-11T06:47:47.769Z,99421.25
2022-08-11T06:51:10.877Z,99407.63
2022-08-11T06:54:15.841Z,99402.88
2022-08-11T06:57:37.317Z,99400.81
2022-08-11T07:00:41.938Z,99393.91
2022-08-11T07:03:45.660Z,99377.28
2022-08-11T07:07:10.827Z,99390.53
2022-08-11T07:10:49.776Z,99380.72
2022-08-11T07:14:10.976Z,99380.66
2022-08-11T07:17:21.513Z,99381.72
2022-08-11T07:20:43.951Z,99389.03
2022-08-11T07:24:04.367Z,99384.78
2022-08-11T07:27:26.633Z,99395.66
2022-08-11T07:30:30.133Z,99388.75
2022-08-11T07:34:08.492Z,99399.22
2022-08-11T07:37:10.427Z,99395.28
2022-08-11T07:40:13.353Z,99394.66
2022-08-11T07:43:16.577Z,99399.97
2022-08-11T07:46:37.063Z,99397.75
2022-08-11T07:49:59.524Z,99395.53
2022-08-11T07:53:03.817Z,99380.22
2022-08-11T07:56:06.874Z,99390.25
2022-08-11T08:00:00.064Z,99394.03
2022-08-11T08:03:08.632Z,99395.06
2022-08-11T08:06:36.185Z,99396.53
2022-08-11T08:09:59.644Z,99395.94
2022-08-11T08:13:19.923Z,99392.88
2022-08-11T08:16:40.386Z,99392.59
2022-08-11T08:19:44.629Z,99386.69
2022-08-11T08:22:49.964Z,99393.75
2022-08-11T08:25:53.256Z,99392.00
2022-08-11T08:29:16.964Z,99388.75
2022-08-11T08:32:19.732Z,99383.78
2022-08-11T08:35:22.924Z,99386.25
2022-08-11T08:38:27.225Z,99384.97
2022-08-11T08:41:31.267Z,99396.00
2022-08-11T08:44:38.831Z,99390.78
2022-08-11T08:47:44.134Z,99402.22
2022-08-11T08:51:07.984Z,99393.75
2022-08-11T08:54:13.940Z,99398.56
2022-08-11T08:57:18.762Z,99391.00
2022-08-11T09:00:23.601Z,99380.63
2022-08-11T09:04:05.030Z,99378.78
2022-08-11T09:06:52.266Z,99392.88
2022-08-11T09:09:59.159Z,99395.16
2022-08-11T09:13:02.303Z,99399.06
2022-08-11T09:16:06.746Z,99410.59
2022-08-11T09:19:09.821Z,99409.25
2022-08-11T09:22:30.215Z,99418.22
2022-08-11T09:25:52.696Z,99412.47
2022-08-11T09:28:55.941Z,99423.22
2022-08-11T09:31:59.554Z,99412.03
2022-08-11T09:35:04.705Z,99418.28
2022-08-11T09:38:25.057Z,99401.84
2022-08-11T09:41:29.226Z,99397.28
2022-08-11T09:44:53.976Z,99397.47
2022-08-11T09:47:58.226Z,99399.94
2022-08-11T09:51:01.622Z,99402.75
2022-08-11T09:54:06.602Z,99399.69
2022-08-11T09:57:28.168Z,99402.25
2022-08-11T10:00:31.964Z,99393.78
2022-08-11T10:03:40.237Z,99393.06
2022-08-11T10:07:01.686Z,99399.75
2022-08-11T10:10:08.757Z,99397.25
2022-08-11T10:14:31.820Z,99388.72
2022-08-11T10:16:41.365Z,99403.88
2022-08-11T10:19:48.886Z,99395.88
2022-08-11T10:23:24.469Z,99406.28
2022-08-11T10:27:03.211Z,99419.09
2022-08-11T10:30:25.439Z,99412.13
2022-08-11T10:33:59.053Z,99421.22
2022-08-11T10:37:03.547Z,99418.91
2022-08-11T10:40:09.087Z,99423.44
2022-08-11T10:43:14.235Z,99420.84
2022-08-11T10:46:39.058Z,99428.47
2022-08-11T10:49:42.172Z,99412.09
2022-08-11T10:53:03.422Z,99412.78
2022-08-11T10:56:24.687Z,99412.59
2022-08-11T10:59:28.664Z,99400.94
2022-08-11T11:02:33.308Z,99401.28
2022-08-11T11:05:38.714Z,99401.00
2022-08-11T11:09:04.715Z,99391.84
2022-08-11T11:12:27.507Z,99394.69
2022-08-11T11:15:48.785Z,99408.63
2022-08-11T11:19:00.905Z,99405.47
2022-08-11T11:22:24.311Z,99400.00
2022-08-11T11:25:34.334Z,99410.56
2022-08-11T11:28:52.906Z,99410.06
2022-08-11T11:32:11.577Z,99397.97
2022-08-11T11:35:34.053Z,99402.59
2022-08-11T11:38:36.952Z,99404.63
2022-08-11T11:41:40.121Z,99409.03
2022-08-11T11:44:45.725Z,99419.78
2022-08-11T11:47:53.781Z,99413.22
2022-08-11T11:50:58.620Z,99415.63
2022-08-11T11:54:03.380Z,99413.41
2022-08-11T11:57:20.489Z,99413.03
2022-08-11T12:00:43.446Z,99409.09
2022-08-11T12:03:47.532Z,99406.13
2022-08-11T12:07:11.823Z,99400.75
2022-08-11T12:10:14.839Z,99404.03
2022-08-11T12:13:36.017Z,99395.50
2022-08-11T12:16:40.713Z,99395.94
2022-08-11T12:19:51.452Z,99388.63
2022-08-11T12:23:15.521Z,99390.09
2022-08-11T12:26:36.606Z,99383.91
2022-08-11T12:29:41.281Z,99385.63
2022-08-11T12:32:48.340Z,99388.34
2022-08-11T12:36:01.117Z,99390.72
2022-08-11T12:39:23.387Z,99383.41
2022-08-11T12:42:55.294Z,99388.75
2022-08-11T12:46:03.834Z,99371.09
2022-08-11T12:49:28.841Z,99370.06
2022-08-11T12:52:38.483Z,99376.97
2022-08-11T12:56:07.489Z,99376.09
2022-08-11T12:59:28.797Z,99375.75
2022-08-11T13:02:49.368Z,99369.63
2022-08-11T13:05:54.752Z,99369.00
2022-08-11T13:09:01.550Z,99368.31
2022-08-11T13:12:24.526Z,99365.13
2022-08-11T13:15:29.229Z,99348.50
2022-08-11T13:18:33.171Z,99341.41
2022-08-11T13:21:37.203Z,99345.38
2022-08-11T13:24:50.552Z,99344.28
2022-08-11T13:27:57.111Z,99334.81
2022-08-11T13:31:15.614Z,99334.72
2022-08-11T13:34:20.029Z,99340.94
2022-08-11T13:38:19.809Z,99358.91
2022-08-11T13:40:55.649Z,99354.94
2022-08-11T13:44:02.705Z,99349.00
2022-08-11T13:47:07.787Z,99355.59
2022-08-11T13:50:13.588Z,99346.63
2022-08-11T13:53:18.242Z,99349.25
2022-08-11T13:56:23.135Z,99347.66
2022-08-11T13:59:31.107Z,99347.44
2022-08-11T14:02:34.836Z,99353.13
2022-08-11T14:05:45.991Z,99352.75
2022-08-11T14:08:53.564Z,99350.47
2022-08-11T14:12:20.114Z,99349.66
2022-08-11T14:15:29.967Z,99343.50
2022-08-11T14:18:33.785Z,99345.84
2022-08-11T14:21:55.692Z,99342.63
2022-08-11T14:24:59.376Z,99332.56
2022-08-11T14:28:35.011Z,99333.22
2022-08-11T14:31:27.405Z,99333.50
2022-08-11T14:34:30.724Z,99334.78
2022-08-11T14:37:34.923Z,99332.94
2022-08-11T14:40:56.255Z,99333.22
2022-08-11T14:44:16.440Z,99332.97
2022-08-11T14:47:24.469Z,99332.94
2022-08-11T14:50:28.515Z,99329.00
2022-08-11T14:53:31.452Z,99333.97
2022-08-11T14:56:37.238Z,99329.63
2022-08-11T14:59:41.090Z,99328.59
2022-08-11T15:03:09.808Z,99330.69
2022-08-11T15:06:13.204Z,99330.50
2022-08-11T15:09:18.460Z,99321.09
2022-08-11T15:12:32.715Z,99325.13
2022-08-11T15:15:54.268Z,99327.59
2022-08-11T15:18:59.013Z,99332.91
2022-08-11T15:22:24.805Z,99330.22
2022-08-11T15:25:31.219Z,99326.88
2022-08-11T15:28:53.162Z,99329.78
2022-08-11T15:32:14.261Z,99332.31
2022-08-11T15:35:39.698Z,99340.66
2022-08-11T15:38:45.492Z,99334.81
2022-08-11T15:42:08.619Z,99334.84
2022-08-11T15:45:29.649Z,99329.03
2022-08-11T15:48:37.287Z,99326.50
2022-08-11T15:51:44.158Z,99321.53
2022-08-11T15:54:48.498Z,99333.78
2022-08-11T15:58:09.415Z,99332.13
2022-08-11T16:01:31.252Z,99338.75
2022-08-11T16:04:36.199Z,99341.03
2022-08-11T16:07:50.044Z,99342.72
2022-08-11T16:10:56.408Z,99337.50
2022-08-11T16:14:19.351Z,99338.97
2022-08-11T16:17:24.397Z,99345.78
2022-08-11T16:20:28.235Z,99347.47
2022-08-11T16:23:32.445Z,99352.00
2022-08-11T16:27:09.295Z,99354.59
2022-08-11T16:30:05.186Z,99350.72
2022-08-11T16:33:48.485Z,99354.81
2022-08-11T16:36:53.078Z,99360.03
2022-08-11T16:40:02.633Z,99362.28
2022-08-11T16:43:24.718Z,99359.03
2022-08-11T16:46:50.916Z,99353.97
2022-08-11T16:49:59.280Z,99363.31
2022-08-11T16:53:02.373Z,99368.66
2022-08-11T16:56:08.857Z,99366.22
2022-08-11T16:59:17.377Z,99364.59
2022-08-11T17:02:37.295Z,99364.47
2022-08-11T17:06:10.775Z,99371.47
2022-08-11T17:09:33.764Z,99368.59
2022-08-11T17:12:57.241Z,99371.06
2022-08-11T17:16:09.044Z,99377.81
2022-08-11T17:19:14.547Z,99378.66
2022-08-11T17:22:35.359Z,99379.56
2022-08-11T17:26:02.759Z,99382.25
2022-08-11T17:29:06.635Z,99379.81
2022-08-11T17:32:28.579Z,99385.09
2022-08-11T17:35:35.771Z,99389.50
2022-08-11T17:38:39.967Z,99379.94
2022-08-11T17:42:00.575Z,99387.59
2022-08-11T17:45:24.099Z,99382.38
2022-08-11T17:48:28.619Z,99389.94
2022-08-11T17:51:50.348Z,99395.06
2022-08-11T17:55:11.628Z,99393.22
2022-08-11T17:58:35.173Z,99396.09
2022-08-11T18:01:41.492Z,99399.31
2022-08-11T18:04:48.077Z,99398.53
2022-08-11T18:08:10.589Z,99388.28
2022-08-11T18:12:06.679Z,99393.59
2022-08-11T18:15:14.090Z,99391.94
2022-08-11T18:18:35.688Z,99390.22
2022-08-11T18:22:03.573Z,99397.25
2022-08-11T18:25:43.267Z,99395.38
2022-08-11T18:29:08.614Z,99389.88
2022-08-11T18:32:49.320Z,99390.84
2022-08-11T18:36:13.728Z,99389.38
2022-08-11T18:39:35.485Z,99390.25
2022-08-11T18:42:57.832Z,99383.34
2022-08-11T18:46:21.504Z,99378.03
2022-08-11T18:50:02.569Z,99375.91
2022-08-11T18:53:29.658Z,99374.88
2022-08-11T18:56:50.362Z,99376.13
2022-08-11T19:00:13.280Z,99369.91
2022-08-11T19:03:43.526Z,99372.19
2022-08-11T19:07:12.660Z,99375.16
2022-08-11T19:10:41.029Z,99376.25
2022-08-11T19:14:03.279Z,99372.84
2022-08-11T19:17:43.659Z,99378.63
2022-08-11T19:21:07.750Z,99363.25
2022-08-11T19:24:34.025Z,99360.25
2022-08-11T19:27:58.944Z,99358.13
2022-08-11T19:31:19.720Z,99368.16
2022-08-11T19:34:41.796Z,99366.72
2022-08-11T19:38:03.565Z,99365.66
2022-08-11T19:41:51.823Z,99365.63
2022-08-11T19:45:06.645Z,99363.34
2022-08-11T19:48:32.218Z,99370.38
2022-08-11T19:51:54.381Z,99366.84
2022-08-11T19:55:15.685Z,99363.78
2022-08-11T19:58:36.268Z,99364.53
2022-08-11T20:02:12.621Z,99372.50
2022-08-11T20:05:35.385Z,99370.72
2022-08-11T20:08:58.998Z,99373.34
2022-08-11T20:12:21.156Z,99375.53
2022-08-11T20:15:45.931Z,99367.53
2022-08-11T20:19:08.931Z,99366.38
2022-08-11T20:22:32.982Z,99365.53
2022-08-11T20:26:03.438Z,99359.28
2022-08-11T20:29:29.945Z,99360.00
2022-08-11T20:32:50.382Z,99365.28
2022-08-11T20:36:12.585Z,99360.31
2022-08-11T20:39:33.548Z,99355.41
2022-08-11T20:42:55.647Z,99359.06
2022-08-11T20:46:18.154Z,99351.50
2022-08-11T20:49:48.797Z,99352.63
2022-08-11T20:53:14.441Z,99353.63
2022-08-11T20:56:36.549Z,99339.38
2022-08-11T20:59:58.118Z,99343.69
2022-08-11T21:03:35.694Z,99343.31
2022-08-11T21:06:59.673Z,99344.38
2022-08-11T21:10:23.991Z,99337.78
2022-08-11T21:13:46.252Z,99337.88
2022-08-11T21:17:27.484Z,99343.44
2022-08-11T21:20:48.611Z,99352.47
2022-08-11T21:24:10.655Z,99351.13
2022-08-11T21:27:35.616Z,99334.03
2022-08-11T21:30:57.956Z,99332.25
2022-08-11T21:34:19.215Z,99336.50
2022-08-11T21:37:39.767Z,99345.41
2022-08-11T21:41:01.680Z,99338.06
2022-08-11T21:44:24.738Z,99343.31
2022-08-11T21:47:45.686Z,99347.44
2022-08-11T21:51:06.231Z,99341.97
2022-08-11T21:54:27.420Z,99354.59
2022-08-11T21:57:49.998Z,99352.25
2022-08-11T22:01:13.263Z,99347.94
2022-08-11T22:04:35.457Z,99358.28
2022-08-11T22:07:55.706Z,99353.44
2022-08-11T22:11:16.321Z,99354.47
2022-08-11T22:14:53.035Z,99348.47
2022-08-11T22:18:14.635Z,99354.59
2022-08-11T22:22:01.311Z,99343.03
2022-08-11T22:25:18.510Z,99336.81
2022-08-11T22:28:39.024Z,99345.41
2022-08-11T22:31:59.549Z,99356.38
2022-08-11T22:35:21.736Z,99348.00
2022-08-11T22:38:42.885Z,99352.44
2022-08-11T22:42:03.426Z,99341.94
2022-08-11T22:45:24.238Z,99353.06
2022-08-11T22:48:44.654Z,99355.25
2022-08-11T22:52:06.746Z,99346.72
2022-08-11T22:55:27.272Z,99350.25
2022-08-11T22:58:48.736Z,99342.78
2022-08-11T23:02:09.325Z,99344.50
2022-08-11T23:05:32.040Z,99339.94
2022-08-11T23:08:55.291Z,99346.50
2022-08-11T23:12:16.370Z,99342.44
2022-08-11T23:15:37.831Z,99340.81
2022-08-11T23:19:01.469Z,99339.69
2022-08-11T23:22:22.549Z,99332.09
2022-08-11T23:25:45.586Z,99332.44
2022-08-11T23:29:06.342Z,99333.44
2022-08-11T23:32:26.722Z,99335.31
2022-08-11T23:35:53.549Z,99329.00
2022-08-11T23:39:16.659Z,99331.81
2022-08-11T23:42:38.454Z,99333.94
2022-08-11T23:46:01.016Z,99336.19
2022-08-11T23:49:22.102Z,99344.22
2022-08-11T23:52:43.117Z,99342.06
2022-08-11T23:56:04.778Z,99333.81
2022-08-11T23:59:26.985Z,99336.16
